Other Surface Observations
Issued by NWS Great Falls, MT

Home | Current Version | Previous Version | Text Only | Print | Product List | Glossary On
Versions: 1 2 3 4 5 6 7 8 9 10 11 12 13 14 15 16 17 18 19 20 21 22 23 24 25 26 27 28 29 30 31 32 33 34 35 36 37 38 39 40 41 42 43 44 45 46 47 48 49 50
364
SXUS55 KTFX 300929
OSOTFX
AREA AWOS OBSERVATIONS
NATIONAL WEATHER SERVICE GREAT FALLS MT
0329 AM MDT TUE MAY 30 2017

METAR KPWD 300930Z AUTO 00000KT 10SM 06/00 A3012 RMK PLENTYWOOD
METAR KPO1 300930Z AUTO 00000KT 10SM 05/M02 A3012 RMK POPLAR
METAR K1S3 300930Z AUTO 00000KT 10SM 08/M01 A3012 RMK FORSYTH
METAR KS71 300930Z AUTO 00000KT 10SM 07/02 A3013 RMK CHINOOK
METAR K79S 300930Z AUTO 10SM 11/03 A3010 RMK FORT BENTON
METAR K38S 300930Z AUTO 00000KT 10SM 06/03 A3016 RMK DEER LODGE
METAR K3U3 300930Z AUTO 18005KT 10SM 08/02 A3015 RMK ANACONDA
METAR K6S5 300930Z AUTO 00000KT 10SM 12/05 A3007 RMK HAMILTON
METAR K88M 300930Z AUTO 35004KT 10SM 08/06 A3005 RMK EUREKA



USA.gov is the U.S. government's official web portal to all federal, state and local government web resources and services.